sensor_id;sensor_type;location;lat;lon;timestamp;P1;durP1;ratioP1;P2;durP2;ratioP2
29452;SDS011;16424;50.956;5.320;2022-11-23T00:00:25;11.20;;;1.88;;
29452;SDS011;16424;50.956;5.320;2022-11-23T00:02:55;10.70;;;2.10;;
29452;SDS011;16424;50.956;5.320;2022-11-23T00:05:21;12.45;;;1.95;;
29452;SDS011;16424;50.956;5.320;2022-11-23T00:07:47;13.23;;;2.17;;
29452;SDS011;16424;50.956;5.320;2022-11-23T00:10:13;8.82;;;2.53;;
29452;SDS011;16424;50.956;5.320;2022-11-23T00:12:38;10.43;;;2.33;;
29452;SDS011;16424;50.956;5.320;2022-11-23T00:15:05;13.80;;;3.47;;
29452;SDS011;16424;50.956;5.320;2022-11-23T00:17:31;14.93;;;2.35;;
29452;SDS011;16424;50.956;5.320;2022-11-23T00:19:57;17.42;;;3.00;;
29452;SDS011;16424;50.956;5.320;2022-11-23T00:22:22;14.07;;;3.35;;
29452;SDS011;16424;50.956;5.320;2022-11-23T00:24:48;11.55;;;2.15;;
29452;SDS011;16424;50.956;5.320;2022-11-23T00:27:14;12.02;;;2.45;;
29452;SDS011;16424;50.956;5.320;2022-11-23T00:29:39;11.60;;;2.22;;
29452;SDS011;16424;50.956;5.320;2022-11-23T00:32:05;10.43;;;1.70;;
29452;SDS011;16424;50.956;5.320;2022-11-23T00:34:30;12.02;;;1.58;;
29452;SDS011;16424;50.956;5.320;2022-11-23T00:36:56;8.85;;;1.83;;
29452;SDS011;16424;50.956;5.320;2022-11-23T00:39:22;14.75;;;2.05;;
29452;SDS011;16424;50.956;5.320;2022-11-23T00:41:47;5.63;;;1.73;;
29452;SDS011;16424;50.956;5.320;2022-11-23T00:44:13;14.48;;;2.10;;
29452;SDS011;16424;50.956;5.320;2022-11-23T00:46:39;5.15;;;1.77;;
29452;SDS011;16424;50.956;5.320;2022-11-23T00:49:04;8.57;;;1.98;;
29452;SDS011;16424;50.956;5.320;2022-11-23T00:51:31;9.93;;;2.00;;
29452;SDS011;16424;50.956;5.320;2022-11-23T00:53:59;5.90;;;1.70;;
29452;SDS011;16424;50.956;5.320;2022-11-23T00:56:27;8.00;;;1.90;;
29452;SDS011;16424;50.956;5.320;2022-11-23T00:58:54;8.95;;;1.92;;
29452;SDS011;16424;50.956;5.320;2022-11-23T01:01:22;7.60;;;2.00;;
29452;SDS011;16424;50.956;5.320;2022-11-23T01:03:49;10.10;;;1.67;;
29452;SDS011;16424;50.956;5.320;2022-11-23T01:06:21;7.15;;;1.85;;
29452;SDS011;16424;50.956;5.320;2022-11-23T01:08:48;9.60;;;1.50;;
29452;SDS011;16424;50.956;5.320;2022-11-23T01:11:15;7.15;;;1.75;;
29452;SDS011;16424;50.956;5.320;2022-11-23T01:13:41;8.23;;;2.10;;
29452;SDS011;16424;50.956;5.320;2022-11-23T01:16:14;13.82;;;2.53;;
29452;SDS011;16424;50.956;5.320;2022-11-23T01:18:42;9.25;;;2.28;;
29452;SDS011;16424;50.956;5.320;2022-11-23T01:21:08;7.22;;;1.90;;
29452;SDS011;16424;50.956;5.320;2022-11-23T01:23:34;10.45;;;2.35;;
29452;SDS011;16424;50.956;5.320;2022-11-23T01:26:07;8.75;;;2.05;;
29452;SDS011;16424;50.956;5.320;2022-11-23T01:28:34;10.23;;;1.98;;
29452;SDS011;16424;50.956;5.320;2022-11-23T01:33:34;11.00;;;1.98;;
29452;SDS011;16424;50.956;5.320;2022-11-23T01:36:07;11.35;;;2.75;;
29452;SDS011;16424;50.956;5.320;2022-11-23T01:38:37;9.45;;;2.33;;
29452;SDS011;16424;50.956;5.320;2022-11-23T01:41:04;9.75;;;2.25;;
29452;SDS011;16424;50.956;5.320;2022-11-23T01:43:30;15.93;;;2.47;;
29452;SDS011;16424;50.956;5.320;2022-11-23T01:45:56;15.70;;;2.67;;
29452;SDS011;16424;50.956;5.320;2022-11-23T01:48:28;11.10;;;2.72;;
29452;SDS011;16424;50.956;5.320;2022-11-23T01:50:58;15.88;;;2.35;;
29452;SDS011;16424;50.956;5.320;2022-11-23T01:53:27;8.18;;;2.60;;
29452;SDS011;16424;50.956;5.320;2022-11-23T01:55:54;13.30;;;2.33;;
29452;SDS011;16424;50.956;5.320;2022-11-23T01:58:23;9.38;;;1.80;;
29452;SDS011;16424;50.956;5.320;2022-11-23T02:00:51;16.30;;;2.80;;
29452;SDS011;16424;50.956;5.320;2022-11-23T02:03:16;12.63;;;2.65;;
29452;SDS011;16424;50.956;5.320;2022-11-23T02:05:44;14.90;;;3.88;;
29452;SDS011;16424;50.956;5.320;2022-11-23T02:08:13;10.35;;;3.33;;
29452;SDS011;16424;50.956;5.320;2022-11-23T02:10:40;16.52;;;2.35;;
29452;SDS011;16424;50.956;5.320;2022-11-23T02:13:07;12.65;;;2.22;;
29452;SDS011;16424;50.956;5.320;2022-11-23T02:15:35;15.25;;;3.15;;
29452;SDS011;16424;50.956;5.320;2022-11-23T02:18:02;19.27;;;3.70;;
29452;SDS011;16424;50.956;5.320;2022-11-23T02:20:31;11.88;;;4.13;;
29452;SDS011;16424;50.956;5.320;2022-11-23T02:28:52;20.40;;;3.03;;
29452;SDS011;16424;50.956;5.320;2022-11-23T02:31:00;16.02;;;2.85;;
29452;SDS011;16424;50.956;5.320;2022-11-23T02:33:27;14.50;;;2.42;;
29452;SDS011;16424;50.956;5.320;2022-11-23T02:35:54;10.52;;;2.45;;
29452;SDS011;16424;50.956;5.320;2022-11-23T02:38:21;11.05;;;2.63;;
29452;SDS011;16424;50.956;5.320;2022-11-23T02:40:50;13.90;;;2.35;;
29452;SDS011;16424;50.956;5.320;2022-11-23T02:43:15;14.15;;;2.65;;
29452;SDS011;16424;50.956;5.320;2022-11-23T02:46:00;13.88;;;2.17;;
29452;SDS011;16424;50.956;5.320;2022-11-23T02:48:27;11.63;;;3.13;;
29452;SDS011;16424;50.956;5.320;2022-11-23T02:50:53;23.17;;;3.88;;
29452;SDS011;16424;50.956;5.320;2022-11-23T02:53:18;15.63;;;2.55;;
29452;SDS011;16424;50.956;5.320;2022-11-23T02:55:44;18.35;;;3.58;;
29452;SDS011;16424;50.956;5.320;2022-11-23T02:58:09;16.77;;;2.95;;
29452;SDS011;16424;50.956;5.320;2022-11-23T03:00:35;22.63;;;3.22;;
29452;SDS011;16424;50.956;5.320;2022-11-23T03:03:02;24.30;;;3.10;;
29452;SDS011;16424;50.956;5.320;2022-11-23T03:05:28;15.88;;;3.47;;
29452;SDS011;16424;50.956;5.320;2022-11-23T03:07:54;9.80;;;2.25;;
29452;SDS011;16424;50.956;5.320;2022-11-23T03:10:19;14.77;;;2.75;;
29452;SDS011;16424;50.956;5.320;2022-11-23T03:12:51;14.15;;;2.10;;
29452;SDS011;16424;50.956;5.320;2022-11-23T03:15:18;14.48;;;3.15;;
29452;SDS011;16424;50.956;5.320;2022-11-23T03:17:43;16.58;;;2.60;;
29452;SDS011;16424;50.956;5.320;2022-11-23T03:20:09;14.93;;;2.97;;
29452;SDS011;16424;50.956;5.320;2022-11-23T03:22:35;21.35;;;3.92;;
29452;SDS011;16424;50.956;5.320;2022-11-23T03:25:01;11.20;;;2.75;;
29452;SDS011;16424;50.956;5.320;2022-11-23T03:27:26;20.50;;;3.50;;
29452;SDS011;16424;50.956;5.320;2022-11-23T03:29:53;18.15;;;3.70;;
29452;SDS011;16424;50.956;5.320;2022-11-23T03:32:18;18.65;;;3.00;;
29452;SDS011;16424;50.956;5.320;2022-11-23T03:34:44;12.85;;;1.73;;
29452;SDS011;16424;50.956;5.320;2022-11-23T03:37:10;13.38;;;2.80;;
29452;SDS011;16424;50.956;5.320;2022-11-23T03:39:35;22.42;;;4.13;;
29452;SDS011;16424;50.956;5.320;2022-11-23T03:42:01;15.73;;;2.83;;
29452;SDS011;16424;50.956;5.320;2022-11-23T03:44:26;15.07;;;2.70;;
29452;SDS011;16424;50.956;5.320;2022-11-23T03:46:52;13.68;;;2.25;;
29452;SDS011;16424;50.956;5.320;2022-11-23T03:49:18;14.82;;;2.80;;
29452;SDS011;16424;50.956;5.320;2022-11-23T03:51:43;10.30;;;1.90;;
29452;SDS011;16424;50.956;5.320;2022-11-23T03:54:09;14.90;;;2.85;;
29452;SDS011;16424;50.956;5.320;2022-11-23T03:56:34;12.73;;;2.50;;
29452;SDS011;16424;50.956;5.320;2022-11-23T03:59:00;18.33;;;3.58;;
29452;SDS011;16424;50.956;5.320;2022-11-23T04:01:25;15.18;;;3.72;;
29452;SDS011;16424;50.956;5.320;2022-11-23T04:03:51;16.27;;;2.67;;
29452;SDS011;16424;50.956;5.320;2022-11-23T04:06:17;20.33;;;2.45;;
29452;SDS011;16424;50.956;5.320;2022-11-23T04:08:42;19.42;;;3.30;;
29452;SDS011;16424;50.956;5.320;2022-11-23T04:11:09;15.82;;;3.40;;
29452;SDS011;16424;50.956;5.320;2022-11-23T04:13:35;10.68;;;2.08;;
29452;SDS011;16424;50.956;5.320;2022-11-23T04:16:00;9.40;;;2.42;;
29452;SDS011;16424;50.956;5.320;2022-11-23T04:18:26;17.10;;;2.92;;
29452;SDS011;16424;50.956;5.320;2022-11-23T04:20:52;11.27;;;2.88;;
29452;SDS011;16424;50.956;5.320;2022-11-23T04:23:17;18.48;;;2.42;;
29452;SDS011;16424;50.956;5.320;2022-11-23T04:25:44;17.15;;;2.75;;
29452;SDS011;16424;50.956;5.320;2022-11-23T04:28:10;14.98;;;3.60;;
29452;SDS011;16424;50.956;5.320;2022-11-23T04:30:35;15.35;;;2.35;;
29452;SDS011;16424;50.956;5.320;2022-11-23T04:33:01;20.88;;;3.03;;
29452;SDS011;16424;50.956;5.320;2022-11-23T04:35:27;24.77;;;5.28;;
29452;SDS011;16424;50.956;5.320;2022-11-23T04:37:52;18.77;;;2.60;;
29452;SDS011;16424;50.956;5.320;2022-11-23T04:40:18;18.48;;;3.15;;
29452;SDS011;16424;50.956;5.320;2022-11-23T04:42:44;18.17;;;3.53;;
29452;SDS011;16424;50.956;5.320;2022-11-23T04:45:09;16.67;;;2.85;;
29452;SDS011;16424;50.956;5.320;2022-11-23T04:47:35;11.82;;;2.85;;
29452;SDS011;16424;50.956;5.320;2022-11-23T04:50:01;15.52;;;4.10;;
29452;SDS011;16424;50.956;5.320;2022-11-23T04:52:26;9.88;;;2.38;;
29452;SDS011;16424;50.956;5.320;2022-11-23T04:54:55;17.02;;;3.80;;
29452;SDS011;16424;50.956;5.320;2022-11-23T04:57:20;20.15;;;3.08;;
29452;SDS011;16424;50.956;5.320;2022-11-23T04:59:46;17.25;;;2.10;;
29452;SDS011;16424;50.956;5.320;2022-11-23T05:02:12;16.40;;;2.78;;
29452;SDS011;16424;50.956;5.320;2022-11-23T05:04:37;12.65;;;2.72;;
29452;SDS011;16424;50.956;5.320;2022-11-23T05:07:03;18.65;;;2.83;;
29452;SDS011;16424;50.956;5.320;2022-11-23T05:09:29;12.70;;;3.20;;
29452;SDS011;16424;50.956;5.320;2022-11-23T05:11:54;14.30;;;3.20;;
29452;SDS011;16424;50.956;5.320;2022-11-23T05:14:20;18.58;;;2.83;;
29452;SDS011;16424;50.956;5.320;2022-11-23T05:16:45;14.65;;;3.65;;
29452;SDS011;16424;50.956;5.320;2022-11-23T05:19:11;15.43;;;3.58;;
29452;SDS011;16424;50.956;5.320;2022-11-23T05:21:37;9.70;;;2.55;;
29452;SDS011;16424;50.956;5.320;2022-11-23T05:24:02;20.95;;;3.55;;
29452;SDS011;16424;50.956;5.320;2022-11-23T05:26:28;16.58;;;3.30;;
29452;SDS011;16424;50.956;5.320;2022-11-23T05:28:54;16.02;;;2.60;;
29452;SDS011;16424;50.956;5.320;2022-11-23T05:31:19;10.15;;;2.13;;
29452;SDS011;16424;50.956;5.320;2022-11-23T05:33:45;15.10;;;3.05;;
29452;SDS011;16424;50.956;5.320;2022-11-23T05:36:10;24.30;;;3.15;;
29452;SDS011;16424;50.956;5.320;2022-11-23T05:38:38;12.77;;;2.47;;
29452;SDS011;16424;50.956;5.320;2022-11-23T05:41:05;9.00;;;2.55;;
29452;SDS011;16424;50.956;5.320;2022-11-23T05:43:30;14.55;;;3.60;;
29452;SDS011;16424;50.956;5.320;2022-11-23T05:45:59;18.50;;;2.63;;
29452;SDS011;16424;50.956;5.320;2022-11-23T05:48:25;13.93;;;2.72;;
29452;SDS011;16424;50.956;5.320;2022-11-23T05:50:51;21.92;;;3.78;;
29452;SDS011;16424;50.956;5.320;2022-11-23T05:53:16;13.52;;;2.65;;
29452;SDS011;16424;50.956;5.320;2022-11-23T05:55:42;12.38;;;2.70;;
29452;SDS011;16424;50.956;5.320;2022-11-23T05:58:08;13.85;;;2.20;;
29452;SDS011;16424;50.956;5.320;2022-11-23T06:00:33;18.05;;;2.55;;
29452;SDS011;16424;50.956;5.320;2022-11-23T06:02:59;12.52;;;2.35;;
29452;SDS011;16424;50.956;5.320;2022-11-23T06:05:25;15.05;;;3.35;;
29452;SDS011;16424;50.956;5.320;2022-11-23T06:07:52;18.30;;;4.28;;
29452;SDS011;16424;50.956;5.320;2022-11-23T06:10:18;21.33;;;2.28;;
29452;SDS011;16424;50.956;5.320;2022-11-23T06:12:43;19.27;;;4.47;;
29452;SDS011;16424;50.956;5.320;2022-11-23T06:15:13;13.18;;;2.92;;
29452;SDS011;16424;50.956;5.320;2022-11-23T06:17:39;13.63;;;2.72;;
29452;SDS011;16424;50.956;5.320;2022-11-23T06:20:05;14.93;;;2.35;;
29452;SDS011;16424;50.956;5.320;2022-11-23T06:22:32;10.25;;;3.47;;
29452;SDS011;16424;50.956;5.320;2022-11-23T06:24:58;25.30;;;3.63;;
29452;SDS011;16424;50.956;5.320;2022-11-23T06:27:23;10.63;;;2.00;;
29452;SDS011;16424;50.956;5.320;2022-11-23T06:29:49;18.27;;;2.83;;
29452;SDS011;16424;50.956;5.320;2022-11-23T06:32:14;21.05;;;5.25;;
29452;SDS011;16424;50.956;5.320;2022-11-23T06:34:40;17.00;;;2.40;;
29452;SDS011;16424;50.956;5.320;2022-11-23T06:37:06;14.95;;;2.33;;
29452;SDS011;16424;50.956;5.320;2022-11-23T06:39:32;12.18;;;3.05;;
29452;SDS011;16424;50.956;5.320;2022-11-23T06:41:57;13.27;;;2.45;;
29452;SDS011;16424;50.956;5.320;2022-11-23T06:44:23;21.73;;;3.45;;
29452;SDS011;16424;50.956;5.320;2022-11-23T06:46:48;13.15;;;2.72;;
29452;SDS011;16424;50.956;5.320;2022-11-23T06:49:14;9.68;;;2.78;;
29452;SDS011;16424;50.956;5.320;2022-11-23T06:51:41;19.50;;;3.00;;
29452;SDS011;16424;50.956;5.320;2022-11-23T06:54:07;17.05;;;2.72;;
29452;SDS011;16424;50.956;5.320;2022-11-23T06:56:33;20.48;;;3.88;;
29452;SDS011;16424;50.956;5.320;2022-11-23T06:58:58;12.45;;;2.38;;
29452;SDS011;16424;50.956;5.320;2022-11-23T07:01:24;17.05;;;2.53;;
29452;SDS011;16424;50.956;5.320;2022-11-23T07:03:50;15.43;;;2.90;;
29452;SDS011;16424;50.956;5.320;2022-11-23T07:06:15;10.98;;;2.47;;
29452;SDS011;16424;50.956;5.320;2022-11-23T07:08:41;21.00;;;2.95;;
29452;SDS011;16424;50.956;5.320;2022-11-23T07:11:08;10.70;;;2.60;;
29452;SDS011;16424;50.956;5.320;2022-11-23T07:13:37;11.38;;;2.70;;
29452;SDS011;16424;50.956;5.320;2022-11-23T07:16:03;10.68;;;3.25;;
29452;SDS011;16424;50.956;5.320;2022-11-23T07:18:29;16.40;;;3.40;;
29452;SDS011;16424;50.956;5.320;2022-11-23T07:20:57;18.33;;;2.78;;
29452;SDS011;16424;50.956;5.320;2022-11-23T07:23:23;12.88;;;2.45;;
29452;SDS011;16424;50.956;5.320;2022-11-23T07:25:49;16.75;;;3.00;;
29452;SDS011;16424;50.956;5.320;2022-11-23T07:28:15;21.55;;;4.43;;
29452;SDS011;16424;50.956;5.320;2022-11-23T07:30:41;15.57;;;3.72;;
29452;SDS011;16424;50.956;5.320;2022-11-23T07:33:08;22.13;;;2.80;;
29452;SDS011;16424;50.956;5.320;2022-11-23T07:35:36;14.52;;;2.33;;
29452;SDS011;16424;50.956;5.320;2022-11-23T07:38:03;22.55;;;2.92;;
29452;SDS011;16424;50.956;5.320;2022-11-23T07:40:32;26.65;;;6.55;;
29452;SDS011;16424;50.956;5.320;2022-11-23T07:42:58;20.42;;;4.65;;
29452;SDS011;16424;50.956;5.320;2022-11-23T07:45:25;15.80;;;2.40;;
29452;SDS011;16424;50.956;5.320;2022-11-23T07:47:56;15.73;;;3.60;;
29452;SDS011;16424;50.956;5.320;2022-11-23T07:50:26;18.50;;;3.25;;
29452;SDS011;16424;50.956;5.320;2022-11-23T07:52:52;13.85;;;4.05;;
29452;SDS011;16424;50.956;5.320;2022-11-23T07:55:18;20.75;;;2.58;;
29452;SDS011;16424;50.956;5.320;2022-11-23T07:57:43;22.63;;;4.28;;
29452;SDS011;16424;50.956;5.320;2022-11-23T08:00:09;13.55;;;3.30;;
29452;SDS011;16424;50.956;5.320;2022-11-23T08:02:36;12.23;;;1.92;;
29452;SDS011;16424;50.956;5.320;2022-11-23T08:05:03;14.20;;;2.80;;
29452;SDS011;16424;50.956;5.320;2022-11-23T08:07:28;14.90;;;2.50;;
29452;SDS011;16424;50.956;5.320;2022-11-23T08:09:56;10.75;;;1.98;;
29452;SDS011;16424;50.956;5.320;2022-11-23T08:12:22;15.95;;;3.05;;
29452;SDS011;16424;50.956;5.320;2022-11-23T08:14:48;15.52;;;1.80;;
29452;SDS011;16424;50.956;5.320;2022-11-23T08:17:13;20.40;;;2.20;;
29452;SDS011;16424;50.956;5.320;2022-11-23T08:19:39;11.60;;;1.90;;
29452;SDS011;16424;50.956;5.320;2022-11-23T08:22:04;13.52;;;3.13;;
29452;SDS011;16424;50.956;5.320;2022-11-23T08:24:30;7.80;;;1.92;;
29452;SDS011;16424;50.956;5.320;2022-11-23T08:26:56;15.70;;;2.72;;
29452;SDS011;16424;50.956;5.320;2022-11-23T08:29:21;16.20;;;2.55;;
29452;SDS011;16424;50.956;5.320;2022-11-23T08:31:47;12.00;;;1.85;;
29452;SDS011;16424;50.956;5.320;2022-11-23T08:34:12;13.40;;;2.95;;
29452;SDS011;16424;50.956;5.320;2022-11-23T08:36:38;17.02;;;2.40;;
29452;SDS011;16424;50.956;5.320;2022-11-23T08:39:04;9.38;;;2.42;;
29452;SDS011;16424;50.956;5.320;2022-11-23T08:41:29;9.30;;;2.15;;
29452;SDS011;16424;50.956;5.320;2022-11-23T08:43:55;15.43;;;2.85;;
29452;SDS011;16424;50.956;5.320;2022-11-23T08:46:21;11.40;;;2.17;;
29452;SDS011;16424;50.956;5.320;2022-11-23T08:48:46;7.07;;;2.20;;
29452;SDS011;16424;50.956;5.320;2022-11-23T08:51:12;10.13;;;2.45;;
29452;SDS011;16424;50.956;5.320;2022-11-23T08:53:38;15.88;;;2.10;;
29452;SDS011;16424;50.956;5.320;2022-11-23T08:56:04;15.52;;;3.28;;
29452;SDS011;16424;50.956;5.320;2022-11-23T08:58:30;9.40;;;3.13;;
29452;SDS011;16424;50.956;5.320;2022-11-23T09:00:57;19.05;;;2.20;;
29452;SDS011;16424;50.956;5.320;2022-11-23T09:03:23;11.20;;;2.50;;
29452;SDS011;16424;50.956;5.320;2022-11-23T09:05:49;5.97;;;1.48;;
29452;SDS011;16424;50.956;5.320;2022-11-23T09:08:15;11.65;;;2.33;;
29452;SDS011;16424;50.956;5.320;2022-11-23T09:10:41;17.25;;;2.58;;
29452;SDS011;16424;50.956;5.320;2022-11-23T09:13:06;8.25;;;1.80;;
29452;SDS011;16424;50.956;5.320;2022-11-23T09:15:32;8.43;;;1.77;;
29452;SDS011;16424;50.956;5.320;2022-11-23T09:17:58;13.10;;;2.15;;
29452;SDS011;16424;50.956;5.320;2022-11-23T09:20:24;10.50;;;2.47;;
29452;SDS011;16424;50.956;5.320;2022-11-23T09:22:53;11.30;;;2.25;;
29452;SDS011;16424;50.956;5.320;2022-11-23T09:25:20;15.95;;;2.33;;
29452;SDS011;16424;50.956;5.320;2022-11-23T09:27:47;7.20;;;1.80;;
29452;SDS011;16424;50.956;5.320;2022-11-23T09:30:13;13.15;;;1.80;;
29452;SDS011;16424;50.956;5.320;2022-11-23T09:32:40;8.10;;;1.88;;
29452;SDS011;16424;50.956;5.320;2022-11-23T09:35:05;12.10;;;2.60;;
29452;SDS011;16424;50.956;5.320;2022-11-23T09:37:32;9.43;;;2.90;;
29452;SDS011;16424;50.956;5.320;2022-11-23T09:39:58;7.93;;;1.90;;
29452;SDS011;16424;50.956;5.320;2022-11-23T09:42:29;9.07;;;2.60;;
29452;SDS011;16424;50.956;5.320;2022-11-23T09:45:08;8.77;;;1.80;;
29452;SDS011;16424;50.956;5.320;2022-11-23T09:48:07;7.88;;;1.67;;
29452;SDS011;16424;50.956;5.320;2022-11-23T09:53:14;14.73;;;1.85;;
29452;SDS011;16424;50.956;5.320;2022-11-23T09:55:49;13.95;;;3.05;;
29452;SDS011;16424;50.956;5.320;2022-11-23T09:58:19;7.28;;;1.85;;
29452;SDS011;16424;50.956;5.320;2022-11-23T10:00:58;8.25;;;2.20;;
29452;SDS011;16424;50.956;5.320;2022-11-23T10:03:36;9.25;;;1.83;;
29452;SDS011;16424;50.956;5.320;2022-11-23T10:06:11;13.80;;;2.63;;
29452;SDS011;16424;50.956;5.320;2022-11-23T10:08:50;12.82;;;2.67;;
29452;SDS011;16424;50.956;5.320;2022-11-23T10:20:02;6.63;;;1.45;;
29452;SDS011;16424;50.956;5.320;2022-11-23T10:25:38;5.68;;;1.77;;
29452;SDS011;16424;50.956;5.320;2022-11-23T10:28:14;4.80;;;1.52;;
29452;SDS011;16424;50.956;5.320;2022-11-23T10:30:42;8.55;;;1.10;;
29452;SDS011;16424;50.956;5.320;2022-11-23T10:33:16;3.70;;;1.00;;
29452;SDS011;16424;50.956;5.320;2022-11-23T10:35:52;3.63;;;0.88;;
29452;SDS011;16424;50.956;5.320;2022-11-23T10:38:19;5.07;;;0.98;;
29452;SDS011;16424;50.956;5.320;2022-11-23T10:46:26;6.55;;;1.17;;
29452;SDS011;16424;50.956;5.320;2022-11-23T10:49:17;4.78;;;1.23;;
29452;SDS011;16424;50.956;5.320;2022-11-23T10:54:21;4.95;;;1.13;;
29452;SDS011;16424;50.956;5.320;2022-11-23T10:56:54;4.35;;;1.33;;
29452;SDS011;16424;50.956;5.320;2022-11-23T10:59:25;5.40;;;0.90;;
29452;SDS011;16424;50.956;5.320;2022-11-23T11:04:45;10.60;;;1.17;;
29452;SDS011;16424;50.956;5.320;2022-11-23T11:09:52;7.10;;;1.63;;
29452;SDS011;16424;50.956;5.320;2022-11-23T11:12:20;8.48;;;1.10;;
29452;SDS011;16424;50.956;5.320;2022-11-23T11:17:31;10.02;;;2.03;;
29452;SDS011;16424;50.956;5.320;2022-11-23T11:20:23;8.85;;;2.72;;
29452;SDS011;16424;50.956;5.320;2022-11-23T11:22:48;8.82;;;1.77;;
29452;SDS011;16424;50.956;5.320;2022-11-23T11:27:52;13.82;;;3.28;;
29452;SDS011;16424;50.956;5.320;2022-11-23T11:30:21;10.32;;;2.75;;
29452;SDS011;16424;50.956;5.320;2022-11-23T11:32:57;15.30;;;4.75;;
29452;SDS011;16424;50.956;5.320;2022-11-23T11:35:41;9.93;;;3.88;;
29452;SDS011;16424;50.956;5.320;2022-11-23T11:40:49;4.70;;;1.55;;
29452;SDS011;16424;50.956;5.320;2022-11-23T11:43:18;4.30;;;0.93;;
29452;SDS011;16424;50.956;5.320;2022-11-23T11:45:59;7.55;;;1.35;;
29452;SDS011;16424;50.956;5.320;2022-11-23T11:48:31;6.15;;;1.75;;
29452;SDS011;16424;50.956;5.320;2022-11-23T11:51:16;2.17;;;0.63;;
29452;SDS011;16424;50.956;5.320;2022-11-23T11:56:33;10.13;;;1.50;;
29452;SDS011;16424;50.956;5.320;2022-11-23T11:59:25;6.55;;;1.83;;
29452;SDS011;16424;50.956;5.320;2022-11-23T12:04:48;3.60;;;1.02;;
29452;SDS011;16424;50.956;5.320;2022-11-23T12:07:20;4.20;;;0.98;;
29452;SDS011;16424;50.956;5.320;2022-11-23T12:09:54;5.30;;;1.30;;
29452;SDS011;16424;50.956;5.320;2022-11-23T12:12:28;2.63;;;1.40;;
29452;SDS011;16424;50.956;5.320;2022-11-23T12:14:56;3.60;;;1.42;;
29452;SDS011;16424;50.956;5.320;2022-11-23T12:25:23;5.22;;;1.63;;
29452;SDS011;16424;50.956;5.320;2022-11-23T12:28:14;3.75;;;1.10;;
29452;SDS011;16424;50.956;5.320;2022-11-23T12:31:08;4.53;;;0.90;;
29452;SDS011;16424;50.956;5.320;2022-11-23T12:33:53;3.80;;;1.33;;
29452;SDS011;16424;50.956;5.320;2022-11-23T12:50:22;10.23;;;2.28;;
29452;SDS011;16424;50.956;5.320;2022-11-23T12:55:23;2.88;;;0.80;;
29452;SDS011;16424;50.956;5.320;2022-11-23T13:00:38;3.10;;;0.80;;
29452;SDS011;16424;50.956;5.320;2022-11-23T13:17:23;4.28;;;0.75;;
29452;SDS011;16424;50.956;5.320;2022-11-23T13:20:24;5.70;;;0.90;;
29452;SDS011;16424;50.956;5.320;2022-11-23T13:23:13;5.13;;;1.02;;
29452;SDS011;16424;50.956;5.320;2022-11-23T13:25:39;9.20;;;2.15;;
29452;SDS011;16424;50.956;5.320;2022-11-23T13:28:25;6.28;;;1.25;;
29452;SDS011;16424;50.956;5.320;2022-11-23T13:31:16;5.15;;;1.92;;
29452;SDS011;16424;50.956;5.320;2022-11-23T13:33:51;8.45;;;2.85;;
29452;SDS011;16424;50.956;5.320;2022-11-23T13:38:54;3.97;;;2.58;;
29452;SDS011;16424;50.956;5.320;2022-11-23T13:49:43;3.65;;;1.27;;
29452;SDS011;16424;50.956;5.320;2022-11-23T13:55:00;9.80;;;2.15;;
29452;SDS011;16424;50.956;5.320;2022-11-23T13:57:30;3.30;;;1.02;;
29452;SDS011;16424;50.956;5.320;2022-11-23T14:06:02;8.93;;;2.05;;
29452;SDS011;16424;50.956;5.320;2022-11-23T14:08:34;3.65;;;1.23;;
29452;SDS011;16424;50.956;5.320;2022-11-23T14:11:10;8.70;;;1.92;;
29452;SDS011;16424;50.956;5.320;2022-11-23T14:13:38;6.38;;;1.50;;
29452;SDS011;16424;50.956;5.320;2022-11-23T14:16:11;3.38;;;1.33;;
29452;SDS011;16424;50.956;5.320;2022-11-23T14:26:28;9.82;;;2.70;;
29452;SDS011;16424;50.956;5.320;2022-11-23T14:43:15;7.95;;;3.22;;
29452;SDS011;16424;50.956;5.320;2022-11-23T14:45:45;7.47;;;2.60;;
29452;SDS011;16424;50.956;5.320;2022-11-23T14:48:22;12.55;;;2.92;;
29452;SDS011;16424;50.956;5.320;2022-11-23T14:53:29;9.95;;;2.10;;
29452;SDS011;16424;50.956;5.320;2022-11-23T14:55:59;4.33;;;1.73;;
29452;SDS011;16424;50.956;5.320;2022-11-23T14:58:26;4.78;;;1.90;;
29452;SDS011;16424;50.956;5.320;2022-11-23T15:01:01;5.03;;;1.50;;
29452;SDS011;16424;50.956;5.320;2022-11-23T15:03:28;10.65;;;1.40;;
29452;SDS011;16424;50.956;5.320;2022-11-23T15:06:06;5.65;;;1.10;;
29452;SDS011;16424;50.956;5.320;2022-11-23T15:08:44;4.90;;;1.55;;
29452;SDS011;16424;50.956;5.320;2022-11-23T15:11:29;2.50;;;1.67;;
29452;SDS011;16424;50.956;5.320;2022-11-23T15:13:58;6.05;;;2.10;;
29452;SDS011;16424;50.956;5.320;2022-11-23T15:16:26;2.63;;;1.20;;
29452;SDS011;16424;50.956;5.320;2022-11-23T15:18:52;5.53;;;1.98;;
29452;SDS011;16424;50.956;5.320;2022-11-23T15:21:19;4.30;;;1.30;;
29452;SDS011;16424;50.956;5.320;2022-11-23T15:23:51;5.65;;;1.58;;
29452;SDS011;16424;50.956;5.320;2022-11-23T15:26:19;5.25;;;1.52;;
29452;SDS011;16424;50.956;5.320;2022-11-23T15:28:50;2.97;;;1.30;;
29452;SDS011;16424;50.956;5.320;2022-11-23T15:33:58;5.10;;;1.35;;
29452;SDS011;16424;50.956;5.320;2022-11-23T15:36:35;5.63;;;1.80;;
29452;SDS011;16424;50.956;5.320;2022-11-23T15:39:02;8.55;;;2.35;;
29452;SDS011;16424;50.956;5.320;2022-11-23T15:41:38;9.38;;;2.08;;
29452;SDS011;16424;50.956;5.320;2022-11-23T15:44:14;4.82;;;1.65;;
29452;SDS011;16424;50.956;5.320;2022-11-23T15:46:44;6.07;;;1.63;;
29452;SDS011;16424;50.956;5.320;2022-11-23T15:49:13;7.40;;;2.55;;
29452;SDS011;16424;50.956;5.320;2022-11-23T15:51:40;7.35;;;1.50;;
29452;SDS011;16424;50.956;5.320;2022-11-23T15:54:32;8.77;;;2.55;;
29452;SDS011;16424;50.956;5.320;2022-11-23T15:57:00;7.85;;;1.80;;
29452;SDS011;16424;50.956;5.320;2022-11-23T15:59:30;6.90;;;1.67;;
29452;SDS011;16424;50.956;5.320;2022-11-23T16:02:09;5.05;;;1.63;;
29452;SDS011;16424;50.956;5.320;2022-11-23T16:04:42;6.50;;;1.88;;
29452;SDS011;16424;50.956;5.320;2022-11-23T16:07:19;6.03;;;1.98;;
29452;SDS011;16424;50.956;5.320;2022-11-23T16:09:47;2.90;;;1.75;;
29452;SDS011;16424;50.956;5.320;2022-11-23T16:12:22;3.33;;;1.35;;
29452;SDS011;16424;50.956;5.320;2022-11-23T16:14:52;6.07;;;2.03;;
29452;SDS011;16424;50.956;5.320;2022-11-23T16:17:20;4.20;;;1.80;;
29452;SDS011;16424;50.956;5.320;2022-11-23T16:19:48;6.75;;;2.50;;
29452;SDS011;16424;50.956;5.320;2022-11-23T16:22:36;8.85;;;2.42;;
29452;SDS011;16424;50.956;5.320;2022-11-23T16:25:06;8.88;;;1.60;;
29452;SDS011;16424;50.956;5.320;2022-11-23T16:27:34;6.72;;;1.77;;
29452;SDS011;16424;50.956;5.320;2022-11-23T16:30:00;5.82;;;1.85;;
29452;SDS011;16424;50.956;5.320;2022-11-23T16:32:29;5.28;;;1.70;;
29452;SDS011;16424;50.956;5.320;2022-11-23T16:35:08;10.25;;;4.05;;
29452;SDS011;16424;50.956;5.320;2022-11-23T16:37:41;5.47;;;2.00;;
29452;SDS011;16424;50.956;5.320;2022-11-23T16:40:07;5.22;;;1.80;;
29452;SDS011;16424;50.956;5.320;2022-11-23T16:42:33;3.72;;;1.80;;
29452;SDS011;16424;50.956;5.320;2022-11-23T16:44:59;3.85;;;1.88;;
29452;SDS011;16424;50.956;5.320;2022-11-23T16:47:25;5.57;;;1.67;;
29452;SDS011;16424;50.956;5.320;2022-11-23T16:49:52;4.40;;;1.83;;
29452;SDS011;16424;50.956;5.320;2022-11-23T16:52:18;4.38;;;1.75;;
29452;SDS011;16424;50.956;5.320;2022-11-23T16:54:44;5.45;;;2.38;;
29452;SDS011;16424;50.956;5.320;2022-11-23T16:57:16;4.55;;;2.00;;
29452;SDS011;16424;50.956;5.320;2022-11-23T17:00:01;4.93;;;2.25;;
29452;SDS011;16424;50.956;5.320;2022-11-23T17:02:28;4.45;;;2.38;;
29452;SDS011;16424;50.956;5.320;2022-11-23T17:04:54;3.63;;;2.08;;
29452;SDS011;16424;50.956;5.320;2022-11-23T17:07:20;9.93;;;2.50;;